sensor_id;sensor_type;location;lat;lon;timestamp;P1;durP1;ratioP1;P2;durP2;ratioP2
16727;SDS011;8482;54.396;18.590;2022-09-09T00:01:58;1.45;;;1.00;;
16727;SDS011;8482;54.396;18.590;2022-09-09T00:04:37;2.25;;;1.23;;
16727;SDS011;8482;54.396;18.590;2022-09-09T00:12:38;1.85;;;1.00;;
16727;SDS011;8482;54.396;18.590;2022-09-09T00:21:17;1.33;;;1.00;;
16727;SDS011;8482;54.396;18.590;2022-09-09T00:23:50;1.60;;;0.93;;
16727;SDS011;8482;54.396;18.590;2022-09-09T00:32:11;1.92;;;0.95;;
16727;SDS011;8482;54.396;18.590;2022-09-09T00:34:51;3.50;;;1.20;;
16727;SDS011;8482;54.396;18.590;2022-09-09T00:37:22;1.45;;;1.10;;
16727;SDS011;8482;54.396;18.590;2022-09-09T00:39:51;1.48;;;0.98;;
16727;SDS011;8482;54.396;18.590;2022-09-09T00:47:42;1.88;;;1.10;;
16727;SDS011;8482;54.396;18.590;2022-09-09T00:50:17;1.17;;;0.80;;
16727;SDS011;8482;54.396;18.590;2022-09-09T00:58:54;1.70;;;1.00;;
16727;SDS011;8482;54.396;18.590;2022-09-09T01:02:15;1.52;;;0.90;;
16727;SDS011;8482;54.396;18.590;2022-09-09T01:04:51;1.77;;;1.08;;
16727;SDS011;8482;54.396;18.590;2022-09-09T01:07:17;1.95;;;1.13;;
16727;SDS011;8482;54.396;18.590;2022-09-09T01:09:51;2.30;;;1.25;;
16727;SDS011;8482;54.396;18.590;2022-09-09T01:12:41;2.65;;;1.08;;
16727;SDS011;8482;54.396;18.590;2022-09-09T01:15:12;2.15;;;1.02;;
16727;SDS011;8482;54.396;18.590;2022-09-09T01:18:10;1.08;;;1.00;;
16727;SDS011;8482;54.396;18.590;2022-09-09T01:20:57;2.10;;;1.00;;
16727;SDS011;8482;54.396;18.590;2022-09-09T01:27:01;1.80;;;1.00;;
16727;SDS011;8482;54.396;18.590;2022-09-09T01:29:31;1.85;;;1.10;;
16727;SDS011;8482;54.396;18.590;2022-09-09T01:31:59;2.13;;;1.10;;
16727;SDS011;8482;54.396;18.590;2022-09-09T01:34:47;1.85;;;1.20;;
16727;SDS011;8482;54.396;18.590;2022-09-09T01:37:12;1.63;;;0.95;;
16727;SDS011;8482;54.396;18.590;2022-09-09T01:39:39;1.30;;;1.00;;
16727;SDS011;8482;54.396;18.590;2022-09-09T01:42:10;1.42;;;1.00;;
16727;SDS011;8482;54.396;18.590;2022-09-09T01:44:40;1.83;;;1.15;;
16727;SDS011;8482;54.396;18.590;2022-09-09T01:47:06;3.47;;;1.20;;
16727;SDS011;8482;54.396;18.590;2022-09-09T01:49:33;2.03;;;1.20;;
16727;SDS011;8482;54.396;18.590;2022-09-09T01:51:59;1.60;;;1.00;;
16727;SDS011;8482;54.396;18.590;2022-09-09T01:54:26;2.10;;;1.10;;
16727;SDS011;8482;54.396;18.590;2022-09-09T02:08:47;1.90;;;1.08;;
16727;SDS011;8482;54.396;18.590;2022-09-09T02:11:19;2.00;;;1.13;;
16727;SDS011;8482;54.396;18.590;2022-09-09T02:13:51;2.08;;;0.90;;
16727;SDS011;8482;54.396;18.590;2022-09-09T02:16:51;1.55;;;0.98;;
16727;SDS011;8482;54.396;18.590;2022-09-09T02:19:35;2.17;;;1.00;;
16727;SDS011;8482;54.396;18.590;2022-09-09T02:22:11;2.05;;;1.10;;
16727;SDS011;8482;54.396;18.590;2022-09-09T02:24:39;0.80;;;0.80;;
16727;SDS011;8482;54.396;18.590;2022-09-09T02:27:06;1.30;;;1.10;;
16727;SDS011;8482;54.396;18.590;2022-09-09T02:29:35;1.70;;;0.88;;
16727;SDS011;8482;54.396;18.590;2022-09-09T02:32:07;1.83;;;1.00;;
16727;SDS011;8482;54.396;18.590;2022-09-09T02:34:40;1.10;;;0.88;;
16727;SDS011;8482;54.396;18.590;2022-09-09T02:37:12;1.30;;;1.10;;
16727;SDS011;8482;54.396;18.590;2022-09-09T02:39:44;1.20;;;0.80;;
16727;SDS011;8482;54.396;18.590;2022-09-09T02:42:09;1.80;;;1.00;;
16727;SDS011;8482;54.396;18.590;2022-09-09T02:44:35;1.83;;;1.02;;
16727;SDS011;8482;54.396;18.590;2022-09-09T02:50:16;1.88;;;1.00;;
16727;SDS011;8482;54.396;18.590;2022-09-09T02:58:05;2.05;;;1.00;;
16727;SDS011;8482;54.396;18.590;2022-09-09T03:00:36;2.97;;;1.33;;
16727;SDS011;8482;54.396;18.590;2022-09-09T03:03:04;1.35;;;0.98;;
16727;SDS011;8482;54.396;18.590;2022-09-09T03:05:31;1.35;;;0.90;;
16727;SDS011;8482;54.396;18.590;2022-09-09T03:07:57;1.95;;;1.30;;
16727;SDS011;8482;54.396;18.590;2022-09-09T03:10:24;1.70;;;1.00;;
16727;SDS011;8482;54.396;18.590;2022-09-09T03:12:49;2.65;;;1.20;;
16727;SDS011;8482;54.396;18.590;2022-09-09T03:15:15;2.20;;;1.10;;
16727;SDS011;8482;54.396;18.590;2022-09-09T03:17:41;2.10;;;1.10;;
16727;SDS011;8482;54.396;18.590;2022-09-09T03:20:07;2.00;;;1.02;;
16727;SDS011;8482;54.396;18.590;2022-09-09T03:22:34;1.73;;;0.95;;
16727;SDS011;8482;54.396;18.590;2022-09-09T03:25:00;3.17;;;1.15;;
16727;SDS011;8482;54.396;18.590;2022-09-09T03:27:27;2.47;;;1.30;;
16727;SDS011;8482;54.396;18.590;2022-09-09T03:29:54;2.05;;;1.20;;
16727;SDS011;8482;54.396;18.590;2022-09-09T03:32:21;2.67;;;1.40;;
16727;SDS011;8482;54.396;18.590;2022-09-09T03:34:47;2.72;;;1.27;;
16727;SDS011;8482;54.396;18.590;2022-09-09T03:37:15;3.17;;;1.60;;
16727;SDS011;8482;54.396;18.590;2022-09-09T03:39:42;2.45;;;1.38;;
16727;SDS011;8482;54.396;18.590;2022-09-09T03:42:09;3.53;;;1.73;;
16727;SDS011;8482;54.396;18.590;2022-09-09T03:44:39;3.42;;;1.60;;
16727;SDS011;8482;54.396;18.590;2022-09-09T03:47:06;3.30;;;1.73;;
16727;SDS011;8482;54.396;18.590;2022-09-09T03:49:33;3.85;;;2.00;;
16727;SDS011;8482;54.396;18.590;2022-09-09T03:51:58;3.65;;;1.80;;
16727;SDS011;8482;54.396;18.590;2022-09-09T03:54:26;3.47;;;1.63;;
16727;SDS011;8482;54.396;18.590;2022-09-09T03:56:52;3.95;;;1.70;;
16727;SDS011;8482;54.396;18.590;2022-09-09T03:59:18;3.78;;;1.98;;
16727;SDS011;8482;54.396;18.590;2022-09-09T04:01:45;3.10;;;1.60;;
16727;SDS011;8482;54.396;18.590;2022-09-09T04:04:12;3.88;;;1.92;;
16727;SDS011;8482;54.396;18.590;2022-09-09T04:06:38;4.63;;;2.35;;
16727;SDS011;8482;54.396;18.590;2022-09-09T04:09:03;3.33;;;1.85;;
16727;SDS011;8482;54.396;18.590;2022-09-09T04:11:29;3.85;;;1.95;;
16727;SDS011;8482;54.396;18.590;2022-09-09T04:13:55;3.85;;;1.85;;
16727;SDS011;8482;54.396;18.590;2022-09-09T04:16:21;5.03;;;2.20;;
16727;SDS011;8482;54.396;18.590;2022-09-09T04:18:47;3.65;;;2.10;;
16727;SDS011;8482;54.396;18.590;2022-09-09T04:21:13;3.80;;;1.92;;
16727;SDS011;8482;54.396;18.590;2022-09-09T04:23:40;3.67;;;1.98;;
16727;SDS011;8482;54.396;18.590;2022-09-09T04:26:06;4.60;;;2.10;;
16727;SDS011;8482;54.396;18.590;2022-09-09T04:28:32;3.55;;;2.03;;
16727;SDS011;8482;54.396;18.590;2022-09-09T04:31:08;3.95;;;1.95;;
16727;SDS011;8482;54.396;18.590;2022-09-09T04:33:39;4.18;;;1.92;;
16727;SDS011;8482;54.396;18.590;2022-09-09T04:36:05;3.67;;;2.10;;
16727;SDS011;8482;54.396;18.590;2022-09-09T04:38:32;3.55;;;1.77;;
16727;SDS011;8482;54.396;18.590;2022-09-09T04:40:58;5.18;;;1.85;;
16727;SDS011;8482;54.396;18.590;2022-09-09T04:43:24;3.75;;;2.33;;
16727;SDS011;8482;54.396;18.590;2022-09-09T04:45:52;4.80;;;2.10;;
16727;SDS011;8482;54.396;18.590;2022-09-09T04:48:18;3.15;;;1.95;;
16727;SDS011;8482;54.396;18.590;2022-09-09T04:50:55;3.75;;;1.95;;
16727;SDS011;8482;54.396;18.590;2022-09-09T04:53:27;4.38;;;2.03;;
16727;SDS011;8482;54.396;18.590;2022-09-09T04:56:00;4.75;;;2.10;;
16727;SDS011;8482;54.396;18.590;2022-09-09T04:58:38;3.38;;;1.77;;
16727;SDS011;8482;54.396;18.590;2022-09-09T05:01:09;3.55;;;1.85;;
16727;SDS011;8482;54.396;18.590;2022-09-09T05:03:42;3.53;;;1.90;;
16727;SDS011;8482;54.396;18.590;2022-09-09T05:06:11;4.60;;;1.90;;
16727;SDS011;8482;54.396;18.590;2022-09-09T05:08:41;4.18;;;1.95;;
16727;SDS011;8482;54.396;18.590;2022-09-09T05:11:21;3.20;;;1.88;;
16727;SDS011;8482;54.396;18.590;2022-09-09T05:13:49;3.72;;;2.08;;
16727;SDS011;8482;54.396;18.590;2022-09-09T05:16:16;3.88;;;2.00;;
16727;SDS011;8482;54.396;18.590;2022-09-09T05:18:43;3.88;;;2.10;;
16727;SDS011;8482;54.396;18.590;2022-09-09T05:21:14;4.15;;;1.90;;
16727;SDS011;8482;54.396;18.590;2022-09-09T05:23:42;3.40;;;1.95;;
16727;SDS011;8482;54.396;18.590;2022-09-09T05:26:11;4.50;;;1.92;;
16727;SDS011;8482;54.396;18.590;2022-09-09T05:28:40;3.13;;;1.70;;
16727;SDS011;8482;54.396;18.590;2022-09-09T05:31:06;4.38;;;2.15;;
16727;SDS011;8482;54.396;18.590;2022-09-09T05:33:36;4.50;;;1.95;;
16727;SDS011;8482;54.396;18.590;2022-09-09T05:36:06;3.95;;;2.03;;
16727;SDS011;8482;54.396;18.590;2022-09-09T05:38:36;4.38;;;1.98;;
16727;SDS011;8482;54.396;18.590;2022-09-09T05:41:03;3.65;;;1.80;;
16727;SDS011;8482;54.396;18.590;2022-09-09T05:43:29;4.88;;;1.95;;
16727;SDS011;8482;54.396;18.590;2022-09-09T05:46:03;4.35;;;1.95;;
16727;SDS011;8482;54.396;18.590;2022-09-09T05:48:36;4.38;;;1.95;;
16727;SDS011;8482;54.396;18.590;2022-09-09T05:51:05;3.05;;;1.80;;
16727;SDS011;8482;54.396;18.590;2022-09-09T05:53:34;4.22;;;1.70;;
16727;SDS011;8482;54.396;18.590;2022-09-09T05:58:39;5.22;;;2.45;;
16727;SDS011;8482;54.396;18.590;2022-09-09T06:01:12;3.55;;;1.67;;
16727;SDS011;8482;54.396;18.590;2022-09-09T06:03:43;4.75;;;2.08;;
16727;SDS011;8482;54.396;18.590;2022-09-09T06:06:15;3.53;;;1.85;;
16727;SDS011;8482;54.396;18.590;2022-09-09T06:08:45;2.80;;;1.83;;
16727;SDS011;8482;54.396;18.590;2022-09-09T06:11:13;3.70;;;1.63;;
16727;SDS011;8482;54.396;18.590;2022-09-09T06:13:51;3.85;;;2.10;;
16727;SDS011;8482;54.396;18.590;2022-09-09T06:16:20;2.85;;;1.70;;
16727;SDS011;8482;54.396;18.590;2022-09-09T06:18:48;3.78;;;1.60;;
16727;SDS011;8482;54.396;18.590;2022-09-09T06:21:16;2.85;;;1.75;;
16727;SDS011;8482;54.396;18.590;2022-09-09T06:23:45;3.08;;;1.63;;
16727;SDS011;8482;54.396;18.590;2022-09-09T06:26:16;4.07;;;1.70;;
16727;SDS011;8482;54.396;18.590;2022-09-09T06:28:49;3.90;;;2.22;;
16727;SDS011;8482;54.396;18.590;2022-09-09T06:31:18;3.63;;;1.75;;
16727;SDS011;8482;54.396;18.590;2022-09-09T06:33:48;3.25;;;1.83;;
16727;SDS011;8482;54.396;18.590;2022-09-09T06:36:17;2.65;;;1.60;;
16727;SDS011;8482;54.396;18.590;2022-09-09T06:38:52;3.08;;;1.85;;
16727;SDS011;8482;54.396;18.590;2022-09-09T06:41:19;3.35;;;1.70;;
16727;SDS011;8482;54.396;18.590;2022-09-09T06:43:47;3.28;;;1.80;;
16727;SDS011;8482;54.396;18.590;2022-09-09T06:48:48;3.35;;;1.60;;
16727;SDS011;8482;54.396;18.590;2022-09-09T06:51:15;1.88;;;1.40;;
16727;SDS011;8482;54.396;18.590;2022-09-09T06:53:45;3.78;;;1.75;;
16727;SDS011;8482;54.396;18.590;2022-09-09T06:58:41;3.80;;;1.70;;
16727;SDS011;8482;54.396;18.590;2022-09-09T07:01:09;3.38;;;1.60;;
16727;SDS011;8482;54.396;18.590;2022-09-09T07:03:41;2.70;;;1.75;;
16727;SDS011;8482;54.396;18.590;2022-09-09T07:06:13;3.15;;;1.40;;
16727;SDS011;8482;54.396;18.590;2022-09-09T07:08:51;4.90;;;1.77;;
16727;SDS011;8482;54.396;18.590;2022-09-09T07:11:23;2.40;;;1.40;;
16727;SDS011;8482;54.396;18.590;2022-09-09T07:13:56;2.63;;;1.60;;
16727;SDS011;8482;54.396;18.590;2022-09-09T07:16:24;4.43;;;1.75;;
16727;SDS011;8482;54.396;18.590;2022-09-09T07:18:52;2.72;;;1.42;;
16727;SDS011;8482;54.396;18.590;2022-09-09T07:21:26;3.75;;;1.52;;
16727;SDS011;8482;54.396;18.590;2022-09-09T07:23:53;3.65;;;1.75;;
16727;SDS011;8482;54.396;18.590;2022-09-09T07:26:21;3.20;;;1.70;;
16727;SDS011;8482;54.396;18.590;2022-09-09T07:28:50;2.97;;;1.60;;
16727;SDS011;8482;54.396;18.590;2022-09-09T07:31:17;2.72;;;1.70;;
16727;SDS011;8482;54.396;18.590;2022-09-09T07:33:46;2.95;;;1.67;;
16727;SDS011;8482;54.396;18.590;2022-09-09T07:36:14;3.58;;;1.98;;
16727;SDS011;8482;54.396;18.590;2022-09-09T07:38:42;2.00;;;1.60;;
16727;SDS011;8482;54.396;18.590;2022-09-09T07:41:21;3.88;;;1.80;;
16727;SDS011;8482;54.396;18.590;2022-09-09T07:44:06;2.38;;;1.48;;
16727;SDS011;8482;54.396;18.590;2022-09-09T07:46:35;3.40;;;1.88;;
16727;SDS011;8482;54.396;18.590;2022-09-09T07:49:03;3.30;;;2.03;;
16727;SDS011;8482;54.396;18.590;2022-09-09T07:51:31;3.50;;;1.80;;
16727;SDS011;8482;54.396;18.590;2022-09-09T07:54:00;1.77;;;1.35;;
16727;SDS011;8482;54.396;18.590;2022-09-09T07:56:36;3.35;;;1.70;;
16727;SDS011;8482;54.396;18.590;2022-09-09T07:59:03;2.80;;;1.60;;
16727;SDS011;8482;54.396;18.590;2022-09-09T08:01:35;3.38;;;1.98;;
16727;SDS011;8482;54.396;18.590;2022-09-09T08:04:07;3.78;;;1.90;;
16727;SDS011;8482;54.396;18.590;2022-09-09T08:06:40;3.65;;;1.90;;
16727;SDS011;8482;54.396;18.590;2022-09-09T08:09:09;3.10;;;1.50;;
16727;SDS011;8482;54.396;18.590;2022-09-09T08:11:36;3.63;;;1.77;;
16727;SDS011;8482;54.396;18.590;2022-09-09T08:14:04;4.15;;;2.10;;
16727;SDS011;8482;54.396;18.590;2022-09-09T08:16:33;3.10;;;1.65;;
16727;SDS011;8482;54.396;18.590;2022-09-09T08:19:03;2.45;;;1.38;;
16727;SDS011;8482;54.396;18.590;2022-09-09T08:21:32;2.67;;;1.50;;
16727;SDS011;8482;54.396;18.590;2022-09-09T08:24:01;4.15;;;1.75;;
16727;SDS011;8482;54.396;18.590;2022-09-09T08:26:32;3.95;;;1.88;;
16727;SDS011;8482;54.396;18.590;2022-09-09T08:29:02;2.55;;;1.75;;
16727;SDS011;8482;54.396;18.590;2022-09-09T08:34:22;2.90;;;1.73;;
16727;SDS011;8482;54.396;18.590;2022-09-09T08:36:50;2.60;;;1.60;;
16727;SDS011;8482;54.396;18.590;2022-09-09T08:39:17;2.30;;;1.60;;
16727;SDS011;8482;54.396;18.590;2022-09-09T08:45:02;3.88;;;1.98;;
16727;SDS011;8482;54.396;18.590;2022-09-09T08:50:55;2.88;;;1.70;;
16727;SDS011;8482;54.396;18.590;2022-09-09T08:53:27;3.70;;;1.90;;
16727;SDS011;8482;54.396;18.590;2022-09-09T08:56:10;2.90;;;1.80;;
16727;SDS011;8482;54.396;18.590;2022-09-09T08:58:54;3.25;;;1.73;;
16727;SDS011;8482;54.396;18.590;2022-09-09T09:13:15;4.85;;;1.80;;
16727;SDS011;8482;54.396;18.590;2022-09-09T09:15:47;4.13;;;1.83;;
16727;SDS011;8482;54.396;18.590;2022-09-09T09:18:35;3.75;;;1.52;;
16727;SDS011;8482;54.396;18.590;2022-09-09T09:21:12;2.28;;;1.33;;
16727;SDS011;8482;54.396;18.590;2022-09-09T09:26:32;2.75;;;1.70;;
16727;SDS011;8482;54.396;18.590;2022-09-09T09:29:23;2.03;;;1.42;;
16727;SDS011;8482;54.396;18.590;2022-09-09T09:31:53;3.47;;;1.80;;
16727;SDS011;8482;54.396;18.590;2022-09-09T09:34:24;3.10;;;1.50;;
16727;SDS011;8482;54.396;18.590;2022-09-09T09:36:54;2.13;;;1.30;;
16727;SDS011;8482;54.396;18.590;2022-09-09T09:39:27;3.60;;;1.90;;
16727;SDS011;8482;54.396;18.590;2022-09-09T09:41:55;2.80;;;1.80;;
16727;SDS011;8482;54.396;18.590;2022-09-09T09:44:32;2.88;;;1.77;;
16727;SDS011;8482;54.396;18.590;2022-09-09T09:47:08;2.63;;;1.60;;
16727;SDS011;8482;54.396;18.590;2022-09-09T09:49:39;2.60;;;1.80;;
16727;SDS011;8482;54.396;18.590;2022-09-09T09:52:33;3.05;;;1.85;;
16727;SDS011;8482;54.396;18.590;2022-09-09T09:55:03;2.15;;;1.50;;
16727;SDS011;8482;54.396;18.590;2022-09-09T09:57:37;4.03;;;1.90;;
16727;SDS011;8482;54.396;18.590;2022-09-09T10:02:57;3.58;;;1.80;;
16727;SDS011;8482;54.396;18.590;2022-09-09T10:05:26;4.18;;;2.13;;
16727;SDS011;8482;54.396;18.590;2022-09-09T10:10:40;4.60;;;2.50;;
16727;SDS011;8482;54.396;18.590;2022-09-09T10:13:27;3.47;;;2.17;;
16727;SDS011;8482;54.396;18.590;2022-09-09T10:19:30;3.88;;;2.03;;
16727;SDS011;8482;54.396;18.590;2022-09-09T10:25:11;3.72;;;2.03;;
16727;SDS011;8482;54.396;18.590;2022-09-09T10:37:00;4.72;;;2.38;;
16727;SDS011;8482;54.396;18.590;2022-09-09T10:39:48;4.13;;;2.42;;
16727;SDS011;8482;54.396;18.590;2022-09-09T10:42:27;3.85;;;2.20;;
16727;SDS011;8482;54.396;18.590;2022-09-09T10:45:17;3.90;;;2.15;;
16727;SDS011;8482;54.396;18.590;2022-09-09T10:51:16;4.90;;;2.40;;
16727;SDS011;8482;54.396;18.590;2022-09-09T10:56:54;4.22;;;2.65;;
16727;SDS011;8482;54.396;18.590;2022-09-09T10:59:43;4.30;;;2.38;;
16727;SDS011;8482;54.396;18.590;2022-09-09T11:02:17;3.95;;;2.25;;
16727;SDS011;8482;54.396;18.590;2022-09-09T11:05:06;3.78;;;2.25;;
16727;SDS011;8482;54.396;18.590;2022-09-09T11:13:26;4.63;;;2.42;;
16727;SDS011;8482;54.396;18.590;2022-09-09T11:21:49;4.65;;;2.55;;
16727;SDS011;8482;54.396;18.590;2022-09-09T11:24:22;5.53;;;2.63;;
16727;SDS011;8482;54.396;18.590;2022-09-09T11:35:30;4.32;;;2.50;;
16727;SDS011;8482;54.396;18.590;2022-09-09T11:42:04;4.18;;;2.30;;
16727;SDS011;8482;54.396;18.590;2022-09-09T11:44:36;3.90;;;2.15;;
16727;SDS011;8482;54.396;18.590;2022-09-09T11:47:02;3.88;;;2.35;;
16727;SDS011;8482;54.396;18.590;2022-09-09T11:49:29;4.72;;;2.60;;
16727;SDS011;8482;54.396;18.590;2022-09-09T11:52:18;4.03;;;2.40;;
16727;SDS011;8482;54.396;18.590;2022-09-09T11:55:30;3.95;;;2.30;;
16727;SDS011;8482;54.396;18.590;2022-09-09T11:58:00;3.83;;;2.45;;
16727;SDS011;8482;54.396;18.590;2022-09-09T12:00:34;5.97;;;2.70;;
16727;SDS011;8482;54.396;18.590;2022-09-09T12:03:28;4.28;;;2.60;;
16727;SDS011;8482;54.396;18.590;2022-09-09T12:08:46;4.00;;;2.33;;
16727;SDS011;8482;54.396;18.590;2022-09-09T12:11:28;4.40;;;2.30;;
16727;SDS011;8482;54.396;18.590;2022-09-09T12:13:56;4.75;;;2.60;;
16727;SDS011;8482;54.396;18.590;2022-09-09T12:16:38;3.95;;;2.60;;
16727;SDS011;8482;54.396;18.590;2022-09-09T12:19:15;3.90;;;2.38;;
16727;SDS011;8482;54.396;18.590;2022-09-09T12:21:47;4.43;;;2.50;;
16727;SDS011;8482;54.396;18.590;2022-09-09T12:25:28;5.00;;;2.65;;
16727;SDS011;8482;54.396;18.590;2022-09-09T12:33:48;4.55;;;2.33;;
16727;SDS011;8482;54.396;18.590;2022-09-09T12:36:15;4.07;;;2.50;;
16727;SDS011;8482;54.396;18.590;2022-09-09T12:38:47;4.07;;;2.72;;
16727;SDS011;8482;54.396;18.590;2022-09-09T12:41:25;5.82;;;3.20;;
16727;SDS011;8482;54.396;18.590;2022-09-09T12:44:03;6.05;;;3.05;;
16727;SDS011;8482;54.396;18.590;2022-09-09T12:46:39;4.00;;;2.55;;
16727;SDS011;8482;54.396;18.590;2022-09-09T12:55:15;4.90;;;3.00;;
16727;SDS011;8482;54.396;18.590;2022-09-09T12:57:44;4.20;;;2.90;;
16727;SDS011;8482;54.396;18.590;2022-09-09T13:00:18;4.97;;;2.83;;
16727;SDS011;8482;54.396;18.590;2022-09-09T13:02:57;5.00;;;2.88;;
16727;SDS011;8482;54.396;18.590;2022-09-09T13:05:39;4.35;;;2.60;;
16727;SDS011;8482;54.396;18.590;2022-09-09T13:08:06;5.53;;;2.78;;
16727;SDS011;8482;54.396;18.590;2022-09-09T13:10:41;4.68;;;3.05;;
16727;SDS011;8482;54.396;18.590;2022-09-09T13:13:23;4.53;;;2.63;;
16727;SDS011;8482;54.396;18.590;2022-09-09T13:16:04;4.30;;;2.67;;
16727;SDS011;8482;54.396;18.590;2022-09-09T13:18:44;6.13;;;2.70;;
16727;SDS011;8482;54.396;18.590;2022-09-09T13:21:09;6.05;;;3.05;;
16727;SDS011;8482;54.396;18.590;2022-09-09T13:23:36;4.32;;;2.53;;
16727;SDS011;8482;54.396;18.590;2022-09-09T13:26:03;4.97;;;2.63;;
16727;SDS011;8482;54.396;18.590;2022-09-09T13:28:48;6.28;;;3.15;;
16727;SDS011;8482;54.396;18.590;2022-09-09T13:31:23;4.97;;;2.90;;
16727;SDS011;8482;54.396;18.590;2022-09-09T13:33:54;5.00;;;2.90;;
16727;SDS011;8482;54.396;18.590;2022-09-09T13:36:28;4.25;;;2.60;;
16727;SDS011;8482;54.396;18.590;2022-09-09T13:38:57;5.22;;;2.90;;
16727;SDS011;8482;54.396;18.590;2022-09-09T13:41:28;5.78;;;2.47;;
16727;SDS011;8482;54.396;18.590;2022-09-09T13:43:59;4.95;;;2.70;;
16727;SDS011;8482;54.396;18.590;2022-09-09T13:51:36;4.05;;;2.55;;
16727;SDS011;8482;54.396;18.590;2022-09-09T13:54:11;5.70;;;2.70;;
16727;SDS011;8482;54.396;18.590;2022-09-09T13:56:41;4.18;;;2.40;;
16727;SDS011;8482;54.396;18.590;2022-09-09T13:59:11;4.53;;;2.83;;
16727;SDS011;8482;54.396;18.590;2022-09-09T14:01:41;4.20;;;2.58;;
16727;SDS011;8482;54.396;18.590;2022-09-09T14:04:08;4.72;;;2.55;;
16727;SDS011;8482;54.396;18.590;2022-09-09T14:06:35;4.10;;;2.30;;
16727;SDS011;8482;54.396;18.590;2022-09-09T14:09:03;5.03;;;3.03;;
16727;SDS011;8482;54.396;18.590;2022-09-09T14:11:31;5.13;;;3.25;;
16727;SDS011;8482;54.396;18.590;2022-09-09T14:13:57;4.35;;;2.78;;
16727;SDS011;8482;54.396;18.590;2022-09-09T14:16:22;4.65;;;2.90;;
16727;SDS011;8482;54.396;18.590;2022-09-09T14:18:48;4.75;;;2.58;;
16727;SDS011;8482;54.396;18.590;2022-09-09T14:21:14;5.88;;;3.20;;
16727;SDS011;8482;54.396;18.590;2022-09-09T14:23:43;4.70;;;3.08;;
16727;SDS011;8482;54.396;18.590;2022-09-09T14:26:15;5.07;;;2.83;;
16727;SDS011;8482;54.396;18.590;2022-09-09T14:28:41;6.63;;;3.25;;
16727;SDS011;8482;54.396;18.590;2022-09-09T14:31:11;5.07;;;2.80;;
16727;SDS011;8482;54.396;18.590;2022-09-09T14:33:38;4.82;;;3.10;;
16727;SDS011;8482;54.396;18.590;2022-09-09T14:36:05;4.78;;;2.92;;
16727;SDS011;8482;54.396;18.590;2022-09-09T14:38:32;5.57;;;3.38;;
16727;SDS011;8482;54.396;18.590;2022-09-09T14:41:07;5.22;;;3.00;;
16727;SDS011;8482;54.396;18.590;2022-09-09T14:43:43;5.50;;;3.30;;
16727;SDS011;8482;54.396;18.590;2022-09-09T14:46:17;6.53;;;3.60;;
16727;SDS011;8482;54.396;18.590;2022-09-09T14:48:45;6.40;;;3.40;;
16727;SDS011;8482;54.396;18.590;2022-09-09T14:51:18;5.85;;;3.40;;
16727;SDS011;8482;54.396;18.590;2022-09-09T14:53:50;5.88;;;3.40;;
16727;SDS011;8482;54.396;18.590;2022-09-09T14:56:19;6.20;;;3.20;;
16727;SDS011;8482;54.396;18.590;2022-09-09T14:58:49;5.00;;;2.90;;
16727;SDS011;8482;54.396;18.590;2022-09-09T15:01:18;5.35;;;3.22;;
16727;SDS011;8482;54.396;18.590;2022-09-09T15:03:53;5.05;;;3.15;;
16727;SDS011;8482;54.396;18.590;2022-09-09T15:06:23;6.15;;;3.50;;
16727;SDS011;8482;54.396;18.590;2022-09-09T15:08:51;6.32;;;3.78;;
16727;SDS011;8482;54.396;18.590;2022-09-09T15:11:18;6.32;;;3.47;;
16727;SDS011;8482;54.396;18.590;2022-09-09T15:13:50;5.72;;;3.42;;
16727;SDS011;8482;54.396;18.590;2022-09-09T15:16:18;6.60;;;3.85;;
16727;SDS011;8482;54.396;18.590;2022-09-09T15:18:45;5.95;;;3.55;;
16727;SDS011;8482;54.396;18.590;2022-09-09T15:21:16;5.55;;;3.15;;
16727;SDS011;8482;54.396;18.590;2022-09-09T15:23:44;6.20;;;3.63;;
16727;SDS011;8482;54.396;18.590;2022-09-09T15:26:11;6.75;;;3.70;;
16727;SDS011;8482;54.396;18.590;2022-09-09T15:28:39;6.32;;;3.38;;
16727;SDS011;8482;54.396;18.590;2022-09-09T15:31:24;7.15;;;4.05;;
16727;SDS011;8482;54.396;18.590;2022-09-09T15:33:57;5.85;;;3.92;;
16727;SDS011;8482;54.396;18.590;2022-09-09T15:36:27;6.40;;;3.40;;
16727;SDS011;8482;54.396;18.590;2022-09-09T15:38:55;6.82;;;4.00;;
16727;SDS011;8482;54.396;18.590;2022-09-09T15:41:21;8.30;;;4.90;;
16727;SDS011;8482;54.396;18.590;2022-09-09T15:43:49;6.47;;;3.72;;
16727;SDS011;8482;54.396;18.590;2022-09-09T15:49:30;8.02;;;3.80;;
16727;SDS011;8482;54.396;18.590;2022-09-09T15:54:28;6.85;;;3.83;;
16727;SDS011;8482;54.396;18.590;2022-09-09T15:57:04;6.32;;;3.42;;
16727;SDS011;8482;54.396;18.590;2022-09-09T15:59:32;6.45;;;3.70;;
16727;SDS011;8482;54.396;18.590;2022-09-09T16:01:59;5.72;;;3.42;;
16727;SDS011;8482;54.396;18.590;2022-09-09T16:04:25;6.25;;;3.70;;
16727;SDS011;8482;54.396;18.590;2022-09-09T16:06:55;6.60;;;3.65;;
16727;SDS011;8482;54.396;18.590;2022-09-09T16:09:25;6.00;;;3.50;;
16727;SDS011;8482;54.396;18.590;2022-09-09T16:11:52;5.80;;;3.40;;
16727;SDS011;8482;54.396;18.590;2022-09-09T16:14:23;7.20;;;3.80;;
16727;SDS011;8482;54.396;18.590;2022-09-09T16:16:50;6.32;;;3.83;;
16727;SDS011;8482;54.396;18.590;2022-09-09T16:19:16;6.93;;;3.65;;
16727;SDS011;8482;54.396;18.590;2022-09-09T16:21:43;7.20;;;3.92;;
16727;SDS011;8482;54.396;18.590;2022-09-09T16:24:15;5.93;;;3.30;;
16727;SDS011;8482;54.396;18.590;2022-09-09T16:26:44;6.05;;;3.47;;
16727;SDS011;8482;54.396;18.590;2022-09-09T16:29:16;6.70;;;3.90;;
16727;SDS011;8482;54.396;18.590;2022-09-09T16:31:43;7.20;;;4.28;;
16727;SDS011;8482;54.396;18.590;2022-09-09T16:34:11;6.47;;;4.20;;
16727;SDS011;8482;54.396;18.590;2022-09-09T16:36:39;7.97;;;4.65;;
16727;SDS011;8482;54.396;18.590;2022-09-09T16:39:13;6.78;;;3.80;;
16727;SDS011;8482;54.396;18.590;2022-09-09T16:41:42;6.63;;;3.70;;
16727;SDS011;8482;54.396;18.590;2022-09-09T16:44:10;6.38;;;3.70;;
16727;SDS011;8482;54.396;18.590;2022-09-09T16:46:39;6.00;;;3.53;;
16727;SDS011;8482;54.396;18.590;2022-09-09T16:49:08;6.07;;;3.88;;
16727;SDS011;8482;54.396;18.590;2022-09-09T16:51:39;6.88;;;3.83;;
16727;SDS011;8482;54.396;18.590;2022-09-09T16:54:14;7.35;;;4.10;;
16727;SDS011;8482;54.396;18.590;2022-09-09T16:56:42;7.25;;;4.53;;
16727;SDS011;8482;54.396;18.590;2022-09-09T16:59:12;6.80;;;4.07;;
16727;SDS011;8482;54.396;18.590;2022-09-09T17:01:44;7.63;;;4.55;;
16727;SDS011;8482;54.396;18.590;2022-09-09T17:04:14;7.68;;;4.45;;
16727;SDS011;8482;54.396;18.590;2022-09-09T17:06:48;6.88;;;4.55;;
16727;SDS011;8482;54.396;18.590;2022-09-09T17:09:17;8.32;;;4.63;;
16727;SDS011;8482;54.396;18.590;2022-09-09T17:11:44;6.43;;;4.20;;
16727;SDS011;8482;54.396;18.590;2022-09-09T17:14:13;8.10;;;5.28;;
16727;SDS011;8482;54.396;18.590;2022-09-09T17:16:42;7.40;;;4.45;;
16727;SDS011;8482;54.396;18.590;2022-09-09T17:19:09;8.35;;;4.90;;
16727;SDS011;8482;54.396;18.590;2022-09-09T17:21:35;9.82;;;4.95;;
16727;SDS011;8482;54.396;18.590;2022-09-09T17:24:02;7.57;;;4.72;;
16727;SDS011;8482;54.396;18.590;2022-09-09T17:26:29;7.88;;;4.97;;
16727;SDS011;8482;54.396;18.590;2022-09-09T17:29:00;8.70;;;5.32;;
16727;SDS011;8482;54.396;18.590;2022-09-09T17:31:28;8.43;;;5.32;;
16727;SDS011;8482;54.396;18.590;2022-09-09T17:33:57;7.22;;;4.78;;
16727;SDS011;8482;54.396;18.590;2022-09-09T17:36:31;8.20;;;4.68;;
16727;SDS011;8482;54.396;18.590;2022-09-09T17:38:59;8.57;;;5.05;;
16727;SDS011;8482;54.396;18.590;2022-09-09T17:41:31;7.72;;;4.95;;
16727;SDS011;8482;54.396;18.590;2022-09-09T17:44:02;10.05;;;5.75;;
16727;SDS011;8482;54.396;18.590;2022-09-09T17:46:34;10.13;;;6.18;;
16727;SDS011;8482;54.396;18.590;2022-09-09T17:49:07;9.27;;;5.78;;
16727;SDS011;8482;54.396;18.590;2022-09-09T17:51:39;8.57;;;5.50;;
16727;SDS011;8482;54.396;18.590;2022-09-09T17:54:08;9.50;;;5.53;;
16727;SDS011;8482;54.396;18.590;2022-09-09T17:56:41;9.35;;;6.25;;